Time;durP1;ratioP1;P1;durP2;ratioP2;P2;SDS_P1;SDS_P2;PMS_P1;PMS_P2;Temp;Humidity;BMP_temperature;BMP_pressure;BME280_temperature;BME280_humidity;BME280_pressure;Samples;Min_cycle;Max_cycle;Signal;HPM_P1;HPM_P2
2023/09/24 00:01:00;;;;;;;7.03;2.35;;;;;;;10.64;100.00;102301.97;6112083;19;20006;-73
2023/09/24 00:03:05;;;;;;;6.03;2.70;;;;;;;10.58;100.00;102292.41;6109683;19;20040;-73
2023/09/24 00:05:13;;;;;;;8.07;2.50;;;;;;;10.55;100.00;102293.31;6108297;19;20012;-73
2023/09/24 00:07:19;;;;;;;6.90;2.92;;;;;;;10.59;100.00;102298.56;6108358;19;20020;-73
2023/09/24 00:09:24;;;;;;;6.18;2.63;;;;;;;10.55;100.00;102298.59;6107217;19;20014;-73
2023/09/24 00:11:28;;;;;;;4.43;2.00;;;;;;;10.51;100.00;102302.16;6105237;19;20023;-73
2023/09/24 00:13:35;;;;;;;3.47;2.28;;;;;;;10.48;100.00;102302.22;6105168;19;20359;-74
2023/09/24 00:15:45;;;;;;;4.25;2.28;;;;;;;10.40;100.00;102303.22;6104195;19;20361;-73
2023/09/24 00:17:50;;;;;;;8.93;2.20;;;;;;;10.39;100.00;102305.00;6103909;19;20407;-73
2023/09/24 00:19:59;;;;;;;7.10;2.75;;;;;;;10.39;100.00;102297.09;6102842;19;20424;-73
2023/09/24 00:22:04;;;;;;;5.70;2.47;;;;;;;10.32;100.00;102296.34;6105237;19;20015;-73
2023/09/24 00:24:10;;;;;;;4.55;2.10;;;;;;;10.33;100.00;102303.34;6105050;19;20470;-73
2023/09/24 00:26:15;;;;;;;8.30;2.58;;;;;;;10.32;100.00;102305.97;6104839;19;20006;-73
2023/09/24 00:28:20;;;;;;;6.68;3.05;;;;;;;10.30;100.00;102306.03;6100869;19;20015;-73
2023/09/24 00:30:24;;;;;;;11.50;3.22;;;;;;;10.37;100.00;102309.41;6105419;19;20331;-73
2023/09/24 00:32:31;;;;;;;10.07;2.83;;;;;;;10.35;100.00;102307.69;6105257;19;20043;-74
2023/09/24 00:34:38;;;;;;;4.97;2.22;;;;;;;10.33;100.00;102307.72;6103408;19;21159;-73
2023/09/24 00:36:44;;;;;;;2.83;2.05;;;;;;;10.32;100.00;102306.88;6103607;19;20023;-73
2023/09/24 00:38:52;;;;;;;5.88;2.75;;;;;;;10.27;100.00;102308.69;6104456;19;20366;-73
2023/09/24 00:40:59;;;;;;;5.10;2.40;;;;;;;10.35;100.00;102310.31;6103977;19;20010;-73
2023/09/24 00:43:02;;;;;;;5.70;2.80;;;;;;;10.38;100.00;102316.41;6104076;19;20011;-74
2023/09/24 00:45:14;;;;;;;8.43;2.72;;;;;;;10.39;100.00;102318.13;6103921;19;20019;-73
2023/09/24 00:47:19;;;;;;;4.53;2.40;;;;;;;10.32;100.00;102320.00;6104128;19;20053;-75
2023/09/24 00:49:27;;;;;;;5.13;2.28;;;;;;;10.35;100.00;102311.22;6102738;19;20566;-75
2023/09/24 00:51:32;;;;;;;8.05;2.53;;;;;;;10.30;100.00;102308.66;6103157;19;20022;-73
2023/09/24 00:53:38;;;;;;;4.25;2.00;;;;;;;10.27;100.00;102313.06;6101548;19;20014;-73
2023/09/24 00:55:44;;;;;;;6.43;2.17;;;;;;;10.26;100.00;102314.78;6101740;19;20484;-74
2023/09/24 00:57:51;;;;;;;5.70;2.50;;;;;;;10.28;100.00;102317.44;6105045;19;20530;-73
2023/09/24 00:59:58;;;;;;;5.82;2.85;;;;;;;10.23;100.00;102322.72;6104096;19;20003;-74
2023/09/24 01:02:05;;;;;;;5.57;2.08;;;;;;;10.36;100.00;102318.19;6103697;19;20002;-74
2023/09/24 01:04:11;;;;;;;3.92;2.17;;;;;;;10.56;100.00;102320.50;6105315;19;20079;-73
2023/09/24 01:06:20;;;;;;;5.88;2.45;;;;;;;10.53;100.00;102318.78;6103593;19;20018;-74
2023/09/24 01:08:28;;;;;;;4.30;2.60;;;;;;;10.47;100.00;102318.88;6102853;19;20017;-73
2023/09/24 01:10:33;;;;;;;7.70;2.53;;;;;;;10.35;100.00;102316.47;6103365;19;20074;-73
2023/09/24 01:12:39;;;;;;;3.80;1.95;;;;;;;10.40;100.00;102314.63;6103958;19;20482;-74
2023/09/24 01:14:44;;;;;;;3.30;2.08;;;;;;;10.48;100.00;102312.75;6104146;19;20267;-74
2023/09/24 01:16:46;;;;;;;8.23;2.60;;;;;;;10.46;100.00;102313.66;6102053;19;20438;-73
2023/09/24 01:18:53;;;;;;;4.97;2.75;;;;;;;10.52;100.00;102314.41;6102977;19;20078;-74
2023/09/24 01:20:59;;;;;;;7.78;2.92;;;;;;;10.41;100.00;102310.25;6103956;19;20366;-73
2023/09/24 01:23:07;;;;;;;5.78;2.85;;;;;;;10.41;100.00;102321.63;6102827;19;20027;-73
2023/09/24 01:25:13;;;;;;;8.13;2.65;;;;;;;10.45;100.00;102319.78;6102725;19;20007;-74
2023/09/24 01:27:19;;;;;;;8.40;2.75;;;;;;;10.36;100.00;102318.19;6102477;19;20006;-73
2023/09/24 01:29:28;;;;;;;4.90;2.60;;;;;;;10.35;100.00;102319.09;6098123;19;20018;-74
2023/09/24 01:31:36;;;;;;;5.72;2.42;;;;;;;10.47;100.00;102313.63;6103630;19;20010;-74
2023/09/24 01:33:41;;;;;;;5.18;2.88;;;;;;;10.58;100.00;102315.19;6102181;19;20625;-73
2023/09/24 01:35:45;;;;;;;7.75;3.13;;;;;;;10.54;100.00;102317.88;6101109;19;20019;-74
2023/09/24 01:37:52;;;;;;;6.50;2.83;;;;;;;10.47;100.00;102315.38;6101547;19;20360;-75
2023/09/24 01:40:00;;;;;;;5.13;2.90;;;;;;;10.44;100.00;102315.44;6103956;19;20019;-74
2023/09/24 01:42:05;;;;;;;5.60;2.85;;;;;;;10.46;100.00;102308.41;6102786;19;20003;-73
2023/09/24 01:44:12;;;;;;;7.20;2.55;;;;;;;10.51;100.00;102317.09;6099890;19;20007;-74
2023/09/24 01:46:20;;;;;;;4.35;2.38;;;;;;;10.52;100.00;102319.66;6101481;19;20038;-73
2023/09/24 01:48:25;;;;;;;7.45;2.88;;;;;;;10.54;100.00;102324.91;6104427;19;20114;-74
2023/09/24 01:50:32;;;;;;;7.53;2.58;;;;;;;10.51;100.00;102322.34;6101577;19;20007;-74
2023/09/24 01:52:38;;;;;;;6.85;3.15;;;;;;;10.56;100.00;102325.75;6100756;19;20033;-74
2023/09/24 01:54:50;;;;;;;9.60;3.00;;;;;;;10.59;100.00;102330.09;6101072;19;20015;-74
2023/09/24 01:57:09;;;;;;;9.98;2.90;;;;;;;10.58;100.00;102331.84;6103795;19;20383;-75
2023/09/24 01:59:17;;;;;;;5.47;2.58;;;;;;;10.54;100.00;102333.66;6081068;19;20051;-73
2023/09/24 02:01:25;;;;;;;4.20;2.20;;;;;;;10.54;100.00;102327.53;6101907;19;20013;-75
2023/09/24 02:03:38;;;;;;;7.97;3.15;;;;;;;10.54;100.00;102336.28;6080854;19;20142;-75
2023/09/24 02:05:43;;;;;;;5.32;2.40;;;;;;;10.53;100.00;102336.31;6101601;19;20366;-73
2023/09/24 02:07:49;;;;;;;12.32;3.13;;;;;;;10.53;100.00;102334.56;6101800;19;20513;-74
2023/09/24 02:09:54;;;;;;;4.63;2.53;;;;;;;10.55;100.00;102340.63;6102283;19;20010;-73
2023/09/24 02:11:56;;;;;;;7.70;3.08;;;;;;;10.57;100.00;102330.13;6100890;19;20006;-73
2023/09/24 02:14:04;;;;;;;11.77;3.38;;;;;;;10.55;100.00;102335.38;6102671;19;20049;-73
2023/09/24 02:16:12;;;;;;;5.68;2.75;;;;;;;10.52;100.00;102335.44;6108491;19;20018;-74
2023/09/24 02:18:19;;;;;;;5.90;2.47;;;;;;;10.68;100.00;102329.94;6105338;19;20015;-73
2023/09/24 02:20:27;;;;;;;8.75;2.63;;;;;;;10.72;100.00;102327.22;6105632;19;20049;-73
2023/09/24 02:22:35;;;;;;;3.70;2.25;;;;;;;10.65;100.00;102332.63;6107530;19;20003;-74
2023/09/24 02:24:42;;;;;;;5.63;2.42;;;;;;;10.67;100.00;102329.06;6108020;19;20090;-73
2023/09/24 02:26:48;;;;;;;9.38;2.35;;;;;;;10.74;100.00;102327.19;6108389;19;20070;-73
2023/09/24 02:28:55;;;;;;;7.47;2.90;;;;;;;10.68;100.00;102322.03;6107257;19;20048;-73
2023/09/24 02:31:04;;;;;;;5.40;2.63;;;;;;;10.71;100.00;102319.34;6109888;19;20384;-73
2023/09/24 02:33:09;;;;;;;6.82;2.25;;;;;;;10.63;100.00;102326.50;6109896;19;20010;-73
2023/09/24 02:35:17;;;;;;;6.00;2.47;;;;;;;10.56;100.00;102333.66;6111942;19;20018;-74
2023/09/24 02:37:28;;;;;;;5.57;2.60;;;;;;;10.65;100.00;102330.00;6111181;19;20100;-73
2023/09/24 02:39:34;;;;;;;4.78;2.10;;;;;;;10.63;100.00;102330.00;6115735;19;20014;-76
2023/09/24 02:41:46;;;;;;;7.43;2.00;;;;;;;10.65;100.00;102330.00;6119474;19;20010;-75
2023/09/24 02:43:52;;;;;;;5.45;2.65;;;;;;;10.62;100.00;102327.41;6126082;19;20070;-76
2023/09/24 02:45:58;;;;;;;6.25;2.83;;;;;;;10.54;100.00;102330.16;6125751;19;20043;-75
2023/09/24 02:48:07;;;;;;;7.82;3.15;;;;;;;10.52;100.00;102330.19;6127486;19;20030;-75
2023/09/24 02:50:15;;;;;;;5.50;2.67;;;;;;;10.56;100.00;102331.03;6127557;19;20011;-76
2023/09/24 02:52:18;;;;;;;9.45;3.05;;;;;;;10.54;100.00;102335.44;6124495;19;20018;-75
2023/09/24 02:54:23;;;;;;;8.07;3.08;;;;;;;10.49;100.00;102324.97;6125503;19;20007;-75
2023/09/24 02:56:28;;;;;;;6.75;3.00;;;;;;;10.53;100.00;102331.03;6124874;19;20014;-76
2023/09/24 02:58:34;;;;;;;9.27;2.65;;;;;;;10.54;100.00;102327.53;6116403;19;20017;-76
2023/09/24 03:00:39;;;;;;;6.75;2.72;;;;;;;10.52;100.00;102331.94;6112227;19;20612;-77
2023/09/24 03:02:44;;;;;;;10.05;2.92;;;;;;;10.61;100.00;102330.91;6107415;19;20051;-76
2023/09/24 03:04:51;;;;;;;6.93;3.10;;;;;;;10.51;100.00;102336.34;6109531;19;20547;-77
2023/09/24 03:07:00;;;;;;;6.38;2.95;;;;;;;10.48;100.00;102338.16;6109000;19;20010;-76
2023/09/24 03:09:06;;;;;;;6.57;2.60;;;;;;;10.48;100.00;102336.41;6107617;19;20084;-75
2023/09/24 03:11:16;;;;;;;10.18;3.25;;;;;;;10.42;100.00;102341.72;6106016;19;20027;-75
2023/09/24 03:13:21;;;;;;;7.35;3.00;;;;;;;10.44;100.00;102339.94;6107992;19;20025;-77
2023/09/24 03:15:32;;;;;;;7.90;3.20;;;;;;;10.45;100.00;102346.06;6105872;19;20122;-77
2023/09/24 03:17:37;;;;;;;7.93;3.30;;;;;;;10.45;100.00;102346.97;6107628;19;20148;-76
2023/09/24 03:19:44;;;;;;;5.43;2.83;;;;;;;10.43;100.00;102351.38;6105346;19;20014;-77
2023/09/24 03:21:52;;;;;;;6.07;3.25;;;;;;;10.44;100.00;102349.59;6107268;19;20010;-77
2023/09/24 03:23:57;;;;;;;7.97;3.13;;;;;;;10.50;100.00;102352.97;6105624;19;20101;-77
2023/09/24 03:26:03;;;;;;;8.32;2.92;;;;;;;10.46;100.00;102356.56;6106917;19;20021;-76
2023/09/24 03:28:08;;;;;;;9.38;3.00;;;;;;;10.42;100.00;102352.25;6106233;19;20007;-76
2023/09/24 03:30:14;;;;;;;8.13;3.50;;;;;;;10.37;100.00;102361.97;6106365;19;20085;-76
2023/09/24 03:32:19;;;;;;;11.75;3.67;;;;;;;10.42;100.00;102359.25;6104042;19;20086;-74
2023/09/24 03:34:24;;;;;;;9.73;3.67;;;;;;;10.39;100.00;102359.31;6106593;19;20018;-75
2023/09/24 03:36:30;;;;;;;9.90;3.75;;;;;;;10.34;100.00;102372.53;6104450;19;20047;-75
2023/09/24 03:38:38;;;;;;;7.07;3.47;;;;;;;10.31;100.00;102362.06;6106041;19;20085;-75
2023/09/24 03:40:43;;;;;;;11.13;3.72;;;;;;;10.29;100.00;102375.25;6103915;19;20018;-76
2023/09/24 03:42:49;;;;;;;11.38;3.85;;;;;;;10.34;100.00;102369.88;6103934;19;20351;-76
2023/09/24 03:44:54;;;;;;;7.70;3.67;;;;;;;10.31;100.00;102369.94;6103892;19;20010;-76
2023/09/24 03:47:08;;;;;;;8.90;3.55;;;;;;;10.23;100.00;102377.91;6071158;19;20081;-77
2023/09/24 03:49:13;;;;;;;14.23;4.22;;;;;;;10.26;100.00;102383.09;6103312;19;20134;-78
2023/09/24 03:51:18;;;;;;;10.55;4.18;;;;;;;10.39;100.00;102380.34;6106188;19;20419;-75
2023/09/24 03:53:23;;;;;;;10.43;4.05;;;;;;;10.49;100.00;102374.91;6101193;19;20035;-77
2023/09/24 03:55:35;;;;;;;10.32;4.88;;;;;;;10.54;100.00;102380.97;6103776;19;20067;-76
2023/09/24 03:57:40;;;;;;;8.90;4.32;;;;;;;10.51;100.00;102378.41;6061913;19;20482;-75
2023/09/24 04:00:11;;;;;;;8.20;3.97;;;;;;;10.48;100.00;102378.44;6084411;19;20014;-77
2023/09/24 04:02:36;;;;;;;8.85;4.43;;;;;;;10.59;100.00;102383.53;6071894;19;20013;-75
2023/09/24 04:05:59;;;;;;;;;;;;;;;;;;;;;
2023/09/24 04:08:24;;;;;;;11.15;4.57;;;;;;;10.53;100.00;102386.25;6040654;19;648252;-76
2023/09/24 04:10:34;;;;;;;11.48;4.65;;;;;;;10.50;100.00;102395.03;6101920;19;20025;-77
2023/09/24 04:12:43;;;;;;;13.95;4.82;;;;;;;10.47;100.00;102384.59;6091612;19;20039;-76
2023/09/24 04:14:48;;;;;;;12.60;5.18;;;;;;;10.44;100.00;102387.25;6105601;19;20018;-75
2023/09/24 04:17:02;;;;;;;12.18;4.85;;;;;;;10.47;100.00;102394.22;6095475;19;20010;-77
2023/09/24 04:19:11;;;;;;;11.25;4.60;;;;;;;10.46;100.00;102393.38;6105218;19;20029;-74
2023/09/24 04:21:29;;;;;;;17.85;5.35;;;;;;;10.40;100.00;102393.47;6105149;19;20019;-76
2023/09/24 04:23:36;;;;;;;11.95;5.25;;;;;;;10.40;100.00;102396.09;6103986;19;20011;-77
2023/09/24 04:25:44;;;;;;;11.40;5.68;;;;;;;10.45;100.00;102393.38;6105513;19;20557;-77
2023/09/24 04:27:49;;;;;;;17.17;5.93;;;;;;;10.50;100.00;102394.19;6106699;19;20007;-75
2023/09/24 04:29:59;;;;;;;15.25;5.50;;;;;;;10.53;100.00;102395.03;6102234;19;20015;-75
2023/09/24 04:32:04;;;;;;;10.57;5.38;;;;;;;10.49;100.00;102395.94;6104343;19;20355;-75
2023/09/24 04:34:12;;;;;;;12.00;5.60;;;;;;;10.50;100.00;102389.78;6103931;19;20056;-75
2023/09/24 04:36:18;;;;;;;11.38;5.72;;;;;;;10.57;100.00;102390.56;6101755;19;20023;-74
2023/09/24 04:38:24;;;;;;;12.32;5.03;;;;;;;10.59;100.00;102391.44;6103857;19;20129;-75
2023/09/24 04:40:34;;;;;;;14.20;5.30;;;;;;;10.64;100.00;102394.00;6100314;19;20015;-75
2023/09/24 04:42:41;;;;;;;15.25;5.30;;;;;;;10.60;100.00;102394.91;6105438;19;20550;-75
2023/09/24 04:44:43;;;;;;;12.10;4.93;;;;;;;10.56;100.00;102396.72;6093437;19;20022;-75
2023/09/24 04:46:48;;;;;;;12.43;4.53;;;;;;;10.53;100.00;102388.88;6103923;19;20472;-76
2023/09/24 04:48:53;;;;;;;12.73;5.03;;;;;;;10.46;100.00;102400.38;6103182;19;20018;-76
2023/09/24 04:50:56;;;;;;;9.95;4.30;;;;;;;10.38;100.00;102392.63;6103293;19;20018;-76
2023/09/24 05:03:43;;;;;;;6.63;3.83;;;;;;;10.18;100.00;102402.50;5954071;19;3090379;-77
2023/09/24 05:05:48;;;;;;;12.43;5.17;;;;;;;10.16;100.00;102397.25;6132859;19;20030;-76
2023/09/24 05:07:56;;;;;;;16.42;5.00;;;;;;;10.08;100.00;102405.28;6134162;19;20020;-76
2023/09/24 05:10:01;;;;;;;10.05;4.05;;;;;;;10.05;100.00;102404.41;6134400;19;20003;-76
2023/09/24 05:12:08;;;;;;;9.95;5.00;;;;;;;9.98;100.00;102401.03;6132371;19;20002;-76
2023/09/24 05:14:15;;;;;;;12.68;4.43;;;;;;;9.89;100.00;102401.13;6133680;19;20519;-76
2023/09/24 05:16:21;;;;;;;10.95;4.43;;;;;;;9.85;100.00;102408.19;6134197;19;20021;-74
2023/09/24 05:18:26;;;;;;;9.73;4.38;;;;;;;9.83;100.00;102407.31;6136059;19;20641;-74
2023/09/24 05:20:36;;;;;;;10.32;3.80;;;;;;;9.83;100.00;102406.47;6135192;19;20010;-74
2023/09/24 05:22:43;;;;;;;11.70;4.63;;;;;;;9.81;100.00;102413.47;6135160;19;20360;-75
2023/09/24 05:24:49;;;;;;;13.13;5.75;;;;;;;9.86;100.00;102409.91;6134172;19;20006;-76
2023/09/24 05:26:54;;;;;;;11.48;4.68;;;;;;;9.92;100.00;102411.59;6117192;19;20014;-75
2023/09/24 05:28:59;;;;;;;17.80;4.90;;;;;;;9.92;100.00;102414.22;6134218;19;20519;-76
2023/09/24 05:31:03;;;;;;;12.60;4.57;;;;;;;9.92;100.00;102411.59;6136961;19;20014;-76
2023/09/24 05:33:09;;;;;;;9.77;4.85;;;;;;;9.90;100.00;102418.63;6140214;19;20011;-77
2023/09/24 05:35:15;;;;;;;9.75;4.78;;;;;;;9.88;100.00;102412.53;6139255;19;20045;-75
2023/09/24 05:37:23;;;;;;;8.90;4.55;;;;;;;9.84;100.00;102416.06;6143248;19;20033;-76
2023/09/24 05:39:28;;;;;;;13.18;4.47;;;;;;;9.81;100.00;102413.47;6143526;19;20086;-74
2023/09/24 05:41:34;;;;;;;12.32;5.35;;;;;;;9.85;100.00;102423.06;6144118;19;20042;-76
2023/09/24 05:43:44;;;;;;;17.75;6.53;;;;;;;9.88;100.00;102421.28;6148765;19;20013;-75
2023/09/24 05:45:50;;;;;;;11.13;5.00;;;;;;;9.90;100.00;102437.03;6151970;19;20006;-76
2023/09/24 05:47:55;;;;;;;11.95;5.95;;;;;;;9.91;100.00;102435.25;6149877;19;20010;-77
2023/09/24 05:50:02;;;;;;;13.65;5.38;;;;;;;9.96;100.00;102439.56;6151404;19;20010;-75
2023/09/24 05:52:06;;;;;;;12.32;5.90;;;;;;;10.01;100.00;102432.50;6151271;19;20041;-75
2023/09/24 05:54:14;;;;;;;12.05;6.30;;;;;;;10.04;100.00;102436.84;6153068;19;20010;-75
2023/09/24 05:56:19;;;;;;;11.35;4.80;;;;;;;10.07;100.00;102442.91;6149821;19;20027;-74
2023/09/24 05:58:25;;;;;;;11.80;5.95;;;;;;;10.15;100.00;102439.31;6149120;19;20095;-75
2023/09/24 06:00:31;;;;;;;14.52;5.47;;;;;;;10.18;100.00;102434.03;6143571;19;20011;-75
2023/09/24 06:02:36;;;;;;;11.82;5.88;;;;;;;10.18;100.00;102437.50;6138809;19;20003;-75
2023/09/24 06:04:41;;;;;;;11.95;4.78;;;;;;;10.20;100.00;102438.38;6139044;19;20015;-75
2023/09/24 06:06:48;;;;;;;13.00;4.82;;;;;;;10.17;100.00;102429.69;6138587;19;20486;-74
2023/09/24 06:08:54;;;;;;;9.85;4.57;;;;;;;10.22;100.00;102433.09;6137719;19;20045;-75
2023/09/24 06:11:02;;;;;;;11.52;4.85;;;;;;;10.26;100.00;102447.94;6133717;19;20014;-74
2023/09/24 06:13:08;;;;;;;10.45;6.13;;;;;;;10.26;100.00;102437.41;6131028;19;20012;-75
2023/09/24 06:15:14;;;;;;;10.57;4.90;;;;;;;10.27;100.00;102439.19;6109535;19;20018;-75
2023/09/24 06:17:19;;;;;;;14.13;5.68;;;;;;;10.33;100.00;102447.00;6108807;19;20029;-75
2023/09/24 06:19:25;;;;;;;11.98;5.35;;;;;;;10.35;100.00;102441.69;6106370;19;20219;-75
2023/09/24 06:21:30;;;;;;;11.95;5.05;;;;;;;10.34;100.00;102451.34;6106399;19;20024;-75
2023/09/24 06:23:35;;;;;;;15.68;5.43;;;;;;;10.37;100.00;102447.81;6108175;19;20050;-75
2023/09/24 06:25:39;;;;;;;13.25;5.07;;;;;;;10.35;100.00;102447.84;6108958;19;20054;-76
2023/09/24 06:27:50;;;;;;;14.20;4.85;;;;;;;10.46;100.00;102452.94;6109345;19;20092;-74
2023/09/24 06:29:55;;;;;;;12.13;5.13;;;;;;;10.44;100.00;102466.09;6107529;19;20015;-75
2023/09/24 06:32:02;;;;;;;12.38;5.38;;;;;;;10.41;100.00;102460.91;6105095;19;20014;-75
2023/09/24 06:34:07;;;;;;;12.05;4.78;;;;;;;10.41;100.00;102452.16;6108710;19;20373;-74
2023/09/24 06:36:13;;;;;;;16.30;5.72;;;;;;;10.45;100.00;102448.56;6108026;19;20502;-75
2023/09/24 06:38:18;;;;;;;10.73;6.07;;;;;;;10.50;100.00;102460.75;6107425;19;20128;-74
2023/09/24 06:40:23;;;;;;;9.45;5.00;;;;;;;10.46;100.00;102451.19;6107179;19;20015;-75
2023/09/24 06:42:28;;;;;;;15.07;5.85;;;;;;;10.54;100.00;102458.97;6108600;19;20367;-75
2023/09/24 06:44:36;;;;;;;12.88;5.65;;;;;;;10.54;100.00;102462.47;6106699;19;20010;-75
2023/09/24 06:46:38;;;;;;;9.90;4.82;;;;;;;10.58;100.00;102459.78;6105235;19;20697;-75
2023/09/24 06:48:47;;;;;;;13.10;4.93;;;;;;;10.62;100.00;102462.34;6106209;19;20059;-75
2023/09/24 06:50:53;;;;;;;12.95;4.72;;;;;;;10.69;100.00;102465.75;6106844;19;20550;-74
2023/09/24 06:52:59;;;;;;;11.98;5.53;;;;;;;10.72;100.00;102461.31;6104368;19;20546;-76
2023/09/24 06:55:05;;;;;;;13.32;5.32;;;;;;;10.78;100.00;102463.00;6106250;19;20918;-76
2023/09/24 06:57:11;;;;;;;10.98;4.70;;;;;;;10.78;100.00;102463.00;6106266;19;20017;-74
2023/09/24 06:59:16;;;;;;;11.13;5.45;;;;;;;10.87;100.00;102462.84;6106123;19;20041;-76
2023/09/24 07:01:26;;;;;;;11.18;5.47;;;;;;;10.91;100.00;102456.66;6108646;19;20518;-75
2023/09/24 07:03:28;;;;;;;11.93;4.30;;;;;;;11.07;100.00;102464.28;6106070;19;20405;-73
2023/09/24 07:05:33;;;;;;;8.57;4.32;;;;;;;11.10;100.00;102467.72;6106426;19;20007;-73
2023/09/24 07:07:38;;;;;;;9.45;4.40;;;;;;;11.19;100.00;102477.25;6106936;19;20011;-73
2023/09/24 07:09:45;;;;;;;12.68;4.50;;;;;;;11.19;100.00;102477.25;6104866;19;20038;-73
2023/09/24 07:11:50;;;;;;;14.13;4.65;;;;;;;11.28;100.00;102484.97;6106573;19;20086;-73
2023/09/24 07:13:52;;;;;;;10.43;4.32;;;;;;;11.44;100.00;102482.94;6106468;19;20098;-73
2023/09/24 07:15:57;;;;;;;11.55;4.72;;;;;;;11.56;100.00;102492.41;6106195;19;20033;-73
2023/09/24 07:18:08;;;;;;;9.55;4.60;;;;;;;11.76;100.00;102486.75;6106991;19;20011;-72
2023/09/24 07:20:15;;;;;;;11.80;4.47;;;;;;;11.88;100.00;102485.69;6106533;19;20009;-73
2023/09/24 07:22:24;;;;;;;10.38;3.95;;;;;;;12.04;100.00;102487.97;6103202;19;20333;-72
2023/09/24 07:24:31;;;;;;;8.73;4.55;;;;;;;12.23;100.00;102493.72;6084172;19;20046;-73
2023/09/24 07:26:36;;;;;;;11.65;4.30;;;;;;;12.45;100.00;102498.53;6101306;19;20043;-73
2023/09/24 07:28:41;;;;;;;11.10;4.10;;;;;;;12.58;100.00;102494.72;6105532;19;20097;-73
2023/09/24 07:30:48;;;;;;;7.35;4.03;;;;;;;12.80;100.00;102499.53;6106074;19;20042;-72
2023/09/24 07:33:48;;;;;;;;;;;;;;;;;;;;;
2023/09/24 07:36:11;;;;;;;8.67;3.57;;;;;;;13.20;99.06;102499.44;6094379;19;20023;-72
2023/09/24 07:38:35;;;;;;;8.40;3.60;;;;;;;13.37;97.54;102497.25;6103250;19;20084;-73
2023/09/24 07:40:39;;;;;;;10.02;3.72;;;;;;;13.57;98.77;102493.25;6104842;19;20539;-72
2023/09/24 07:42:46;;;;;;;10.88;4.30;;;;;;;13.81;97.49;102489.06;6105893;19;20007;-72
2023/09/24 07:44:51;;;;;;;7.88;3.55;;;;;;;13.94;97.10;102490.47;6104325;19;20467;-73
2023/09/24 07:47:00;;;;;;;12.80;3.92;;;;;;;13.85;94.54;102496.03;6104042;19;20006;-74
2023/09/24 07:49:05;;;;;;;9.82;3.90;;;;;;;13.92;94.44;102486.13;6107434;19;20010;-73
2023/09/24 07:51:16;;;;;;;7.43;3.47;;;;;;;13.94;90.90;102493.09;6105972;19;20040;-73
2023/09/24 07:53:22;;;;;;;9.40;4.20;;;;;;;14.34;92.28;102491.94;6104182;19;20037;-73
2023/09/24 07:55:27;;;;;;;9.30;3.60;;;;;;;14.35;90.98;102490.16;6105380;19;20049;-73
2023/09/24 07:57:32;;;;;;;9.73;3.17;;;;;;;14.55;90.32;102495.75;6105087;19;20002;-74
2023/09/24 07:59:39;;;;;;;10.10;3.40;;;;;;;14.49;89.88;102496.78;6105128;19;20461;-74
2023/09/24 08:01:44;;;;;;;9.20;3.72;;;;;;;14.64;89.04;102497.22;6105092;19;20038;-75
2023/09/24 08:03:51;;;;;;;7.82;3.70;;;;;;;14.67;87.65;102498.03;6102170;19;20086;-75
2023/09/24 08:05:58;;;;;;;9.43;3.42;;;;;;;14.91;86.80;102492.88;6103981;19;20085;-75
2023/09/24 08:08:06;;;;;;;7.95;3.47;;;;;;;15.13;87.94;102487.72;6105986;19;20743;-75
2023/09/24 08:10:12;;;;;;;14.93;3.65;;;;;;;15.20;88.34;102496.34;6105427;19;20010;-75
2023/09/24 08:12:22;;;;;;;8.18;3.38;;;;;;;15.02;85.76;102495.16;6100865;19;20032;-75
2023/09/24 08:14:27;;;;;;;6.65;2.75;;;;;;;15.08;85.50;102494.97;6106284;19;20007;-76
2023/09/24 08:16:32;;;;;;;9.80;3.53;;;;;;;15.45;86.65;102504.31;6102761;19;20494;-77
2023/09/24 08:18:37;;;;;;;7.35;3.35;;;;;;;15.61;84.86;102502.00;6105876;19;20018;-77
2023/09/24 08:20:42;;;;;;;7.28;3.08;;;;;;;15.67;85.23;102499.16;6105419;19;20017;-78
2023/09/24 08:22:47;;;;;;;9.57;3.55;;;;;;;15.76;85.49;102494.41;6105783;19;20482;-78
2023/09/24 08:24:55;;;;;;;7.95;3.75;;;;;;;15.79;84.72;102488.97;6105103;19;20010;-78
2023/09/24 08:27:01;;;;;;;11.38;3.70;;;;;;;15.79;83.59;102499.59;6105605;19;20519;-77
2023/09/24 08:29:08;;;;;;;6.35;2.45;;;;;;;15.84;82.49;102494.13;6103697;19;20014;-76
2023/09/24 08:31:11;;;;;;;8.25;3.25;;;;;;;15.74;84.15;102495.38;6104982;19;20049;-76
2023/09/24 08:33:16;;;;;;;6.85;2.70;;;;;;;16.15;83.23;102500.97;6107597;19;20614;-75
2023/09/24 08:35:19;;;;;;;6.50;3.05;;;;;;;16.05;82.28;102503.09;6106961;19;20150;-76
2023/09/24 08:37:24;;;;;;;6.18;2.70;;;;;;;16.14;82.47;102505.41;6106342;19;20018;-78
2023/09/24 08:39:30;;;;;;;10.20;3.47;;;;;;;16.21;82.11;102504.22;6107697;19;20010;-75
2023/09/24 08:41:45;;;;;;;8.30;3.10;;;;;;;16.45;81.90;102491.81;6109306;19;20038;-76
2023/09/24 08:43:52;;;;;;;5.72;3.00;;;;;;;16.30;81.89;102500.38;6109749;19;20105;-77
2023/09/24 08:45:59;;;;;;;9.13;3.20;;;;;;;16.19;80.22;102498.16;6113766;19;20002;-76
2023/09/24 08:48:07;;;;;;;8.27;3.10;;;;;;;16.30;81.76;102487.13;6115088;19;20022;-76
2023/09/24 08:50:10;;;;;;;6.75;2.72;;;;;;;16.14;81.21;102502.75;6114173;19;20007;-75
2023/09/24 08:52:15;;;;;;;;;;;;;;;16.27;81.35;102489.00;6117800;19;20058;-75
2023/09/24 08:54:20;;;;;;;7.18;2.88;;;;;;;16.45;80.33;102498.91;6112306;19;19915;-75
2023/09/24 08:56:28;;;;;;;7.45;2.95;;;;;;;16.68;80.37;102492.72;6119854;19;20409;-75
2023/09/24 08:58:36;;;;;;;6.65;2.63;;;;;;;16.60;79.81;102502.78;6119000;19;20107;-75
2023/09/24 09:00:42;;;;;;;8.07;3.30;;;;;;;16.92;79.32;102498.00;6119263;19;20010;-75
2023/09/24 09:02:47;;;;;;;8.60;3.03;;;;;;;17.01;79.96;102495.84;6115237;19;20014;-75
2023/09/24 09:04:55;;;;;;;8.63;3.50;;;;;;;16.68;78.32;102498.88;6113683;19;20322;-75
2023/09/24 09:07:13;;;;;;;11.60;3.88;;;;;;;16.62;79.42;102495.63;6108239;19;20013;-75
2023/09/24 09:09:26;;;;;;;8.65;3.47;;;;;;;16.78;78.38;102493.25;6106893;19;20015;-75
2023/09/24 09:11:41;;;;;;;7.03;3.17;;;;;;;16.71;77.10;102491.72;6103856;19;20010;-75
2023/09/24 09:13:48;;;;;;;7.30;2.80;;;;;;;16.57;77.31;102489.63;6105021;19;20316;-75
2023/09/24 09:16:08;;;;;;;7.45;3.35;;;;;;;16.32;77.60;102472.00;6105101;19;20090;-76
2023/09/24 09:18:24;;;;;;;10.48;3.80;;;;;;;16.70;77.43;102482.06;6104512;19;20011;-75
2023/09/24 09:20:49;;;;;;;7.97;3.50;;;;;;;16.63;78.40;102476.09;6099662;19;20010;-76
2023/09/24 09:22:54;;;;;;;7.45;3.30;;;;;;;16.92;77.48;102477.63;6102962;19;20037;-77
2023/09/24 09:25:05;;;;;;;10.68;3.78;;;;;;;16.86;76.79;102473.41;6103613;19;20114;-76
2023/09/24 09:27:17;;;;;;;9.02;3.75;;;;;;;17.22;75.54;102474.59;6070616;19;20026;-75
2023/09/24 09:29:26;;;;;;;9.45;3.47;;;;;;;17.52;75.27;102477.75;6102381;19;20386;-76
2023/09/24 09:31:32;;;;;;;8.05;3.45;;;;;;;17.67;74.34;102486.84;6103118;19;20028;-76
2023/09/24 09:33:42;;;;;;;8.48;3.35;;;;;;;17.19;75.58;102482.69;6100146;19;20014;-75
2023/09/24 09:35:44;;;;;;;7.55;2.80;;;;;;;17.55;74.34;102470.50;6101538;19;20018;-76
2023/09/24 09:37:55;;;;;;;6.85;2.58;;;;;;;17.44;73.12;102477.22;6101430;19;20015;-77
2023/09/24 09:40:03;;;;;;;6.13;2.80;;;;;;;17.51;73.80;102479.56;6102250;19;20015;-75
2023/09/24 09:42:13;;;;;;;9.23;3.30;;;;;;;17.15;74.06;102473.16;6103285;19;20498;-74
2023/09/24 09:44:23;;;;;;;9.10;2.60;;;;;;;17.50;72.09;102464.50;6097443;19;20061;-74
2023/09/24 09:46:34;;;;;;;8.20;2.85;;;;;;;17.52;72.14;102470.63;6077099;19;20014;-76
2023/09/24 09:49:02;;;;;;;6.32;2.88;;;;;;;17.64;71.87;102471.00;6100176;19;20018;-74
2023/09/24 09:51:30;;;;;;;4.03;2.42;;;;;;;18.04;72.80;102471.94;6107195;19;20014;-75
2023/09/24 09:53:52;;;;;;;7.00;2.72;;;;;;;18.19;71.69;102472.09;6106206;19;20011;-77
2023/09/24 09:56:10;;;;;;;7.82;2.60;;;;;;;18.15;71.08;102473.16;6109102;19;20034;-75
2023/09/24 09:58:18;;;;;;;6.18;2.80;;;;;;;17.73;69.06;102473.28;6108426;19;20006;-74
2023/09/24 10:00:31;;;;;;;7.10;2.20;;;;;;;18.23;70.20;102461.31;6100114;19;20074;-77